sensor_id;sensor_type;location;lat;lon;timestamp;pressure;altitude;pressure_sealevel;temperature;humidity
41254;BME280;26987;59.928;30.306;2023-01-25T00:02:07;102475.63;;;0.34;100.00
41254;BME280;26987;59.928;30.306;2023-01-25T00:04:35;102477.66;;;0.44;100.00
41254;BME280;26987;59.928;30.306;2023-01-25T00:07:03;102470.69;;;0.43;100.00
41254;BME280;26987;59.928;30.306;2023-01-25T00:09:32;102468.91;;;0.43;100.00
41254;BME280;26987;59.928;30.306;2023-01-25T00:12:00;102471.38;;;0.46;100.00
41254;BME280;26987;59.928;30.306;2023-01-25T00:14:28;102472.00;;;0.50;100.00
41254;BME280;26987;59.928;30.306;2023-01-25T00:16:56;102469.53;;;0.47;100.00
41254;BME280;26987;59.928;30.306;2023-01-25T00:19:24;102452.97;;;0.45;100.00
41254;BME280;26987;59.928;30.306;2023-01-25T00:21:52;102438.91;;;0.44;100.00
41254;BME280;26987;59.928;30.306;2023-01-25T00:24:20;102443.25;;;0.45;100.00
41254;BME280;26987;59.928;30.306;2023-01-25T00:26:51;102439.59;;;0.48;100.00
41254;BME280;26987;59.928;30.306;2023-01-25T00:29:19;102418.38;;;0.35;100.00
41254;BME280;26987;59.928;30.306;2023-01-25T00:31:57;102410.28;;;0.38;100.00
41254;BME280;26987;59.928;30.306;2023-01-25T00:34:45;102414.78;;;0.50;100.00
41254;BME280;26987;59.928;30.306;2023-01-25T00:37:18;102416.56;;;0.50;100.00
41254;BME280;26987;59.928;30.306;2023-01-25T00:39:47;102410.66;;;0.46;100.00
41254;BME280;26987;59.928;30.306;2023-01-25T00:42:19;102394.25;;;0.41;100.00
41254;BME280;26987;59.928;30.306;2023-01-25T00:44:47;102403.25;;;0.52;100.00
41254;BME280;26987;59.928;30.306;2023-01-25T00:47:16;102413.09;;;0.49;100.00
41254;BME280;26987;59.928;30.306;2023-01-25T00:49:44;102410.94;;;0.42;100.00
41254;BME280;26987;59.928;30.306;2023-01-25T00:52:13;102425.44;;;0.49;100.00
41254;BME280;26987;59.928;30.306;2023-01-25T00:54:41;102435.03;;;0.50;100.00
41254;BME280;26987;59.928;30.306;2023-01-25T00:57:09;102437.88;;;0.47;100.00
41254;BME280;26987;59.928;30.306;2023-01-25T00:59:38;102429.94;;;0.47;100.00
41254;BME280;26987;59.928;30.306;2023-01-25T01:02:09;102414.53;;;0.41;100.00
41254;BME280;26987;59.928;30.306;2023-01-25T01:04:38;102414.31;;;0.44;100.00
41254;BME280;26987;59.928;30.306;2023-01-25T01:07:11;102406.63;;;0.41;100.00
41254;BME280;26987;59.928;30.306;2023-01-25T01:09:40;102407.16;;;0.46;100.00
41254;BME280;26987;59.928;30.306;2023-01-25T01:12:08;102403.84;;;0.42;100.00
41254;BME280;26987;59.928;30.306;2023-01-25T01:14:37;102399.44;;;0.43;100.00
41254;BME280;26987;59.928;30.306;2023-01-25T01:17:05;102388.97;;;0.41;100.00
41254;BME280;26987;59.928;30.306;2023-01-25T01:19:33;102375.88;;;0.40;100.00
41254;BME280;26987;59.928;30.306;2023-01-25T01:22:01;102383.28;;;0.47;100.00
41254;BME280;26987;59.928;30.306;2023-01-25T01:24:29;102380.56;;;0.49;100.00
41254;BME280;26987;59.928;30.306;2023-01-25T01:26:57;102384.16;;;0.48;100.00
41254;BME280;26987;59.928;30.306;2023-01-25T01:29:25;102393.66;;;0.50;100.00
41254;BME280;26987;59.928;30.306;2023-01-25T01:31:54;102393.00;;;0.47;100.00
41254;BME280;26987;59.928;30.306;2023-01-25T01:34:24;102388.66;;;0.46;100.00
41254;BME280;26987;59.928;30.306;2023-01-25T01:36:53;102375.47;;;0.46;100.00
41254;BME280;26987;59.928;30.306;2023-01-25T01:39:22;102366.91;;;0.42;100.00
41254;BME280;26987;59.928;30.306;2023-01-25T01:41:50;102372.94;;;0.44;100.00
41254;BME280;26987;59.928;30.306;2023-01-25T01:44:20;102360.69;;;0.43;100.00
41254;BME280;26987;59.928;30.306;2023-01-25T01:46:57;102365.97;;;0.43;100.00
41254;BME280;26987;59.928;30.306;2023-01-25T01:49:30;102355.81;;;0.65;100.00
41254;BME280;26987;59.928;30.306;2023-01-25T01:52:08;102355.22;;;0.46;100.00
41254;BME280;26987;59.928;30.306;2023-01-25T01:54:41;102343.50;;;0.50;100.00
41254;BME280;26987;59.928;30.306;2023-01-25T01:57:14;102318.00;;;0.36;100.00
41254;BME280;26987;59.928;30.306;2023-01-25T01:59:46;102297.09;;;0.33;100.00
41254;BME280;26987;59.928;30.306;2023-01-25T02:02:17;102301.97;;;0.40;100.00
41254;BME280;26987;59.928;30.306;2023-01-25T02:04:47;102298.94;;;0.46;100.00
41254;BME280;26987;59.928;30.306;2023-01-25T02:07:18;102285.72;;;0.46;100.00
41254;BME280;26987;59.928;30.306;2023-01-25T02:09:49;102272.63;;;0.44;100.00
41254;BME280;26987;59.928;30.306;2023-01-25T02:12:20;102280.25;;;0.49;100.00
41254;BME280;26987;59.928;30.306;2023-01-25T02:14:51;102270.75;;;0.46;100.00
41254;BME280;26987;59.928;30.306;2023-01-25T02:17:25;102258.16;;;0.50;100.00
41254;BME280;26987;59.928;30.306;2023-01-25T02:20:00;102231.88;;;0.35;100.00
41254;BME280;26987;59.928;30.306;2023-01-25T02:22:35;102257.34;;;0.49;100.00
41254;BME280;26987;59.928;30.306;2023-01-25T02:25:08;102254.06;;;0.46;100.00
41254;BME280;26987;59.928;30.306;2023-01-25T02:27:39;102248.03;;;0.44;100.00
41254;BME280;26987;59.928;30.306;2023-01-25T02:30:09;102262.53;;;0.51;100.00
41254;BME280;26987;59.928;30.306;2023-01-25T02:32:37;102259.13;;;0.49;100.00
41254;BME280;26987;59.928;30.306;2023-01-25T02:35:06;102258.38;;;0.47;100.00
41254;BME280;26987;59.928;30.306;2023-01-25T02:37:34;102264.63;;;0.46;99.99
41254;BME280;26987;59.928;30.306;2023-01-25T02:40:02;102261.22;;;0.44;99.87
41254;BME280;26987;59.928;30.306;2023-01-25T02:42:32;102243.47;;;0.33;99.41
41254;BME280;26987;59.928;30.306;2023-01-25T02:45:05;102254.84;;;0.33;99.56
41254;BME280;26987;59.928;30.306;2023-01-25T02:47:36;102251.09;;;0.37;100.00
41254;BME280;26987;59.928;30.306;2023-01-25T02:50:05;102258.25;;;0.35;99.49
41254;BME280;26987;59.928;30.306;2023-01-25T02:52:33;102240.94;;;0.31;100.00
41254;BME280;26987;59.928;30.306;2023-01-25T02:55:01;102244.41;;;0.32;100.00
41254;BME280;26987;59.928;30.306;2023-01-25T02:57:29;102239.31;;;0.29;100.00
41254;BME280;26987;59.928;30.306;2023-01-25T02:59:58;102253.19;;;0.32;100.00
41254;BME280;26987;59.928;30.306;2023-01-25T03:02:26;102243.97;;;0.25;99.92
41254;BME280;26987;59.928;30.306;2023-01-25T03:04:54;102251.41;;;0.33;100.00
41254;BME280;26987;59.928;30.306;2023-01-25T03:07:22;102244.31;;;0.33;99.51
41254;BME280;26987;59.928;30.306;2023-01-25T03:09:50;102248.34;;;0.39;99.68
41254;BME280;26987;59.928;30.306;2023-01-25T03:12:18;102245.63;;;0.41;99.56
41254;BME280;26987;59.928;30.306;2023-01-25T03:14:46;102244.34;;;0.46;99.54
41254;BME280;26987;59.928;30.306;2023-01-25T03:17:16;102231.25;;;0.45;99.18
41254;BME280;26987;59.928;30.306;2023-01-25T03:19:44;102231.47;;;0.42;98.77
41254;BME280;26987;59.928;30.306;2023-01-25T03:22:12;102240.09;;;0.44;99.01
41254;BME280;26987;59.928;30.306;2023-01-25T03:24:40;102243.69;;;0.43;99.02
41254;BME280;26987;59.928;30.306;2023-01-25T03:27:08;102235.97;;;0.40;99.46
41254;BME280;26987;59.928;30.306;2023-01-25T03:29:46;102234.00;;;0.43;99.65
41254;BME280;26987;59.928;30.306;2023-01-25T03:32:20;102245.47;;;0.42;100.00
41254;BME280;26987;59.928;30.306;2023-01-25T03:34:48;102237.03;;;0.37;99.97
41254;BME280;26987;59.928;30.306;2023-01-25T03:37:18;102239.56;;;0.39;100.00
41254;BME280;26987;59.928;30.306;2023-01-25T03:39:47;102237.03;;;0.37;100.00
41254;BME280;26987;59.928;30.306;2023-01-25T03:42:18;102218.22;;;0.29;100.00
41254;BME280;26987;59.928;30.306;2023-01-25T03:44:50;102229.97;;;0.37;100.00
41254;BME280;26987;59.928;30.306;2023-01-25T03:47:20;102225.09;;;0.31;100.00
41254;BME280;26987;59.928;30.306;2023-01-25T03:49:47;102212.63;;;0.20;100.00
41254;BME280;26987;59.928;30.306;2023-01-25T03:52:18;102201.75;;;0.25;100.00
41254;BME280;26987;59.928;30.306;2023-01-25T03:54:47;102197.00;;;0.17;100.00
41254;BME280;26987;59.928;30.306;2023-01-25T03:57:15;102181.91;;;0.19;100.00
41254;BME280;26987;59.928;30.306;2023-01-25T03:59:58;102178.00;;;0.25;100.00
41254;BME280;26987;59.928;30.306;2023-01-25T04:02:27;102156.16;;;0.23;100.00
41254;BME280;26987;59.928;30.306;2023-01-25T04:04:56;102150.78;;;0.24;100.00
41254;BME280;26987;59.928;30.306;2023-01-25T04:07:24;102140.31;;;0.23;100.00
41254;BME280;26987;59.928;30.306;2023-01-25T04:09:51;102125.00;;;0.15;100.00
41254;BME280;26987;59.928;30.306;2023-01-25T04:12:20;102101.47;;;-0.01;100.00
41254;BME280;26987;59.928;30.306;2023-01-25T04:14:47;102128.69;;;0.12;100.00
41254;BME280;26987;59.928;30.306;2023-01-25T04:17:20;102125.53;;;0.07;100.00
41254;BME280;26987;59.928;30.306;2023-01-25T04:20:13;102105.56;;;0.03;100.00
41254;BME280;26987;59.928;30.306;2023-01-25T04:22:41;102110.13;;;0.01;100.00
41254;BME280;26987;59.928;30.306;2023-01-25T04:25:09;102109.38;;;-0.01;100.00
41254;BME280;26987;59.928;30.306;2023-01-25T04:27:42;102108.44;;;0.00;100.00
41254;BME280;26987;59.928;30.306;2023-01-25T04:30:14;102105.91;;;-0.02;100.00
41254;BME280;26987;59.928;30.306;2023-01-25T04:32:44;102094.38;;;-0.14;100.00
41254;BME280;26987;59.928;30.306;2023-01-25T04:35:24;102093.97;;;-0.07;100.00
41254;BME280;26987;59.928;30.306;2023-01-25T04:37:53;102096.59;;;-0.07;100.00
41254;BME280;26987;59.928;30.306;2023-01-25T04:40:24;102101.16;;;-0.09;100.00
41254;BME280;26987;59.928;30.306;2023-01-25T04:42:52;102107.16;;;-0.07;100.00
41254;BME280;26987;59.928;30.306;2023-01-25T04:45:21;102101.66;;;-0.04;100.00
41254;BME280;26987;59.928;30.306;2023-01-25T04:47:54;102095.97;;;0.02;100.00
41254;BME280;26987;59.928;30.306;2023-01-25T04:50:25;102090.00;;;0.00;100.00
41254;BME280;26987;59.928;30.306;2023-01-25T04:52:57;102084.38;;;0.05;100.00
41254;BME280;26987;59.928;30.306;2023-01-25T04:55:25;102068.22;;;0.09;100.00
41254;BME280;26987;59.928;30.306;2023-01-25T04:57:55;102071.63;;;0.11;100.00
41254;BME280;26987;59.928;30.306;2023-01-25T05:00:23;102064.47;;;0.14;100.00
41254;BME280;26987;59.928;30.306;2023-01-25T05:02:52;102052.00;;;0.16;100.00
41254;BME280;26987;59.928;30.306;2023-01-25T05:05:20;102054.63;;;0.16;99.63
41254;BME280;26987;59.928;30.306;2023-01-25T05:07:50;102048.00;;;0.10;99.91
41254;BME280;26987;59.928;30.306;2023-01-25T05:10:17;102026.34;;;0.05;99.65
41254;BME280;26987;59.928;30.306;2023-01-25T05:13:05;102038.28;;;0.10;99.45
41254;BME280;26987;59.928;30.306;2023-01-25T05:15:33;102034.16;;;0.06;99.00
41254;BME280;26987;59.928;30.306;2023-01-25T05:18:02;102053.25;;;0.10;99.51
41254;BME280;26987;59.928;30.306;2023-01-25T05:20:33;102046.91;;;0.12;99.29
41254;BME280;26987;59.928;30.306;2023-01-25T05:23:02;102037.22;;;0.13;99.69
41254;BME280;26987;59.928;30.306;2023-01-25T05:25:31;102045.44;;;0.21;98.93
41254;BME280;26987;59.928;30.306;2023-01-25T05:28:23;102025.81;;;0.12;98.90
41254;BME280;26987;59.928;30.306;2023-01-25T05:31:15;102030.47;;;0.22;98.42
41254;BME280;26987;59.928;30.306;2023-01-25T05:33:43;102025.19;;;0.22;98.82
41254;BME280;26987;59.928;30.306;2023-01-25T05:36:10;102018.34;;;0.19;98.42
41254;BME280;26987;59.928;30.306;2023-01-25T05:38:40;102026.75;;;0.24;98.25
41254;BME280;26987;59.928;30.306;2023-01-25T05:41:09;102024.44;;;0.20;99.02
41254;BME280;26987;59.928;30.306;2023-01-25T05:43:37;102027.28;;;0.17;98.86
41254;BME280;26987;59.928;30.306;2023-01-25T05:46:06;102032.56;;;0.17;98.71
41254;BME280;26987;59.928;30.306;2023-01-25T05:48:34;102031.63;;;0.18;99.63
41254;BME280;26987;59.928;30.306;2023-01-25T05:51:02;102025.41;;;0.19;99.20
41254;BME280;26987;59.928;30.306;2023-01-25T05:53:32;102030.78;;;0.17;99.57
41254;BME280;26987;59.928;30.306;2023-01-25T05:56:04;102014.00;;;0.18;99.25
41254;BME280;26987;59.928;30.306;2023-01-25T05:58:33;101999.44;;;0.12;99.71
41254;BME280;26987;59.928;30.306;2023-01-25T06:01:03;102007.56;;;0.22;100.00
41254;BME280;26987;59.928;30.306;2023-01-25T06:03:41;102010.44;;;0.19;99.53
41254;BME280;26987;59.928;30.306;2023-01-25T06:06:09;102009.34;;;0.22;99.73
41254;BME280;26987;59.928;30.306;2023-01-25T06:08:38;102007.69;;;0.21;99.25
41254;BME280;26987;59.928;30.306;2023-01-25T06:11:08;101993.31;;;0.25;98.88
41254;BME280;26987;59.928;30.306;2023-01-25T06:13:41;101982.34;;;0.18;99.34
41254;BME280;26987;59.928;30.306;2023-01-25T06:16:09;101964.84;;;0.04;100.00
41254;BME280;26987;59.928;30.306;2023-01-25T06:18:43;101984.16;;;0.18;100.00
41254;BME280;26987;59.928;30.306;2023-01-25T06:21:31;101973.38;;;0.21;100.00
41254;BME280;26987;59.928;30.306;2023-01-25T06:24:00;101960.91;;;0.23;99.56
41254;BME280;26987;59.928;30.306;2023-01-25T06:26:30;101961.66;;;0.25;99.76
41254;BME280;26987;59.928;30.306;2023-01-25T06:28:58;101976.03;;;0.21;100.00
41254;BME280;26987;59.928;30.306;2023-01-25T06:31:26;101989.31;;;0.19;100.00
41254;BME280;26987;59.928;30.306;2023-01-25T06:33:54;101945.25;;;-0.05;100.00
41254;BME280;26987;59.928;30.306;2023-01-25T06:36:23;101959.44;;;0.19;100.00
41254;BME280;26987;59.928;30.306;2023-01-25T06:38:51;101942.59;;;0.08;100.00
41254;BME280;26987;59.928;30.306;2023-01-25T06:41:20;101944.03;;;0.12;100.00
41254;BME280;26987;59.928;30.306;2023-01-25T06:43:50;101960.69;;;0.26;100.00
41254;BME280;26987;59.928;30.306;2023-01-25T06:46:19;101961.88;;;0.22;100.00
41254;BME280;26987;59.928;30.306;2023-01-25T06:48:47;101958.47;;;0.20;100.00
41254;BME280;26987;59.928;30.306;2023-01-25T06:51:15;101937.09;;;0.11;100.00
41254;BME280;26987;59.928;30.306;2023-01-25T06:53:45;101925.38;;;0.16;100.00
41254;BME280;26987;59.928;30.306;2023-01-25T06:56:14;101917.16;;;0.07;100.00
41254;BME280;26987;59.928;30.306;2023-01-25T06:58:43;101928.41;;;0.22;100.00
41254;BME280;26987;59.928;30.306;2023-01-25T07:01:14;101903.81;;;0.22;100.00
41254;BME280;26987;59.928;30.306;2023-01-25T07:03:42;101906.03;;;0.28;100.00
41254;BME280;26987;59.928;30.306;2023-01-25T07:06:10;101907.47;;;0.32;100.00
41254;BME280;26987;59.928;30.306;2023-01-25T07:08:38;101904.63;;;0.35;100.00
41254;BME280;26987;59.928;30.306;2023-01-25T07:11:08;101886.81;;;0.26;100.00
41254;BME280;26987;59.928;30.306;2023-01-25T07:13:39;101895.75;;;0.36;100.00
41254;BME280;26987;59.928;30.306;2023-01-25T07:16:12;101889.88;;;0.33;100.00
41254;BME280;26987;59.928;30.306;2023-01-25T07:18:40;101881.00;;;0.34;100.00
41254;BME280;26987;59.928;30.306;2023-01-25T07:21:11;101873.34;;;0.42;100.00
41254;BME280;26987;59.928;30.306;2023-01-25T07:23:39;101864.59;;;0.42;99.99
41254;BME280;26987;59.928;30.306;2023-01-25T07:26:13;101858.53;;;0.53;99.64
41254;BME280;26987;59.928;30.306;2023-01-25T07:28:42;101866.34;;;0.54;99.59
41254;BME280;26987;59.928;30.306;2023-01-25T07:31:12;101846.69;;;0.58;99.35
41254;BME280;26987;59.928;30.306;2023-01-25T07:33:40;101842.22;;;0.59;99.31
41254;BME280;26987;59.928;30.306;2023-01-25T07:36:09;101839.38;;;0.62;99.50
41254;BME280;26987;59.928;30.306;2023-01-25T07:38:37;101837.81;;;0.59;98.61
41254;BME280;26987;59.928;30.306;2023-01-25T07:41:05;101837.56;;;0.62;98.83
41254;BME280;26987;59.928;30.306;2023-01-25T07:43:33;101830.84;;;0.58;98.64
41254;BME280;26987;59.928;30.306;2023-01-25T07:46:05;101841.91;;;0.63;98.80
41254;BME280;26987;59.928;30.306;2023-01-25T07:48:34;101834.59;;;0.67;98.82
41254;BME280;26987;59.928;30.306;2023-01-25T07:51:05;101823.03;;;0.57;99.46
41254;BME280;26987;59.928;30.306;2023-01-25T07:53:49;101843.75;;;0.74;99.26
41254;BME280;26987;59.928;30.306;2023-01-25T07:56:17;101822.81;;;0.60;98.81
41254;BME280;26987;59.928;30.306;2023-01-25T07:58:46;101832.81;;;0.68;99.44
41254;BME280;26987;59.928;30.306;2023-01-25T08:01:16;101819.84;;;0.65;99.41
41254;BME280;26987;59.928;30.306;2023-01-25T08:03:46;101824.38;;;0.62;99.92
41254;BME280;26987;59.928;30.306;2023-01-25T08:06:14;101819.09;;;0.62;100.00
41254;BME280;26987;59.928;30.306;2023-01-25T08:08:44;101816.47;;;0.62;100.00
41254;BME280;26987;59.928;30.306;2023-01-25T08:11:15;101812.84;;;0.63;100.00
41254;BME280;26987;59.928;30.306;2023-01-25T08:13:44;101816.00;;;0.69;100.00
41254;BME280;26987;59.928;30.306;2023-01-25T08:16:12;101796.53;;;0.58;100.00
41254;BME280;26987;59.928;30.306;2023-01-25T08:18:40;101799.94;;;0.72;100.00
41254;BME280;26987;59.928;30.306;2023-01-25T08:21:10;101797.06;;;0.75;100.00
41254;BME280;26987;59.928;30.306;2023-01-25T08:23:37;101794.66;;;0.72;100.00
41254;BME280;26987;59.928;30.306;2023-01-25T08:26:06;101788.28;;;0.74;99.95
41254;BME280;26987;59.928;30.306;2023-01-25T08:28:35;101782.03;;;0.75;100.00
41254;BME280;26987;59.928;30.306;2023-01-25T08:31:07;101745.28;;;0.61;100.00
41254;BME280;26987;59.928;30.306;2023-01-25T08:33:35;101767.69;;;0.80;100.00
41254;BME280;26987;59.928;30.306;2023-01-25T08:36:04;101756.25;;;0.79;100.00
41254;BME280;26987;59.928;30.306;2023-01-25T08:38:36;101774.06;;;0.88;100.00
41254;BME280;26987;59.928;30.306;2023-01-25T08:41:05;101767.06;;;0.87;100.00
41254;BME280;26987;59.928;30.306;2023-01-25T08:43:33;101762.00;;;0.84;100.00
41254;BME280;26987;59.928;30.306;2023-01-25T08:46:02;101743.91;;;0.80;100.00
41254;BME280;26987;59.928;30.306;2023-01-25T08:48:30;101763.72;;;0.97;100.00
41254;BME280;26987;59.928;30.306;2023-01-25T08:50:59;101743.19;;;0.89;100.00
41254;BME280;26987;59.928;30.306;2023-01-25T08:53:28;101741.88;;;0.95;99.96
41254;BME280;26987;59.928;30.306;2023-01-25T08:56:01;101740.69;;;0.99;100.00
41254;BME280;26987;59.928;30.306;2023-01-25T08:58:30;101735.63;;;0.96;100.00
41254;BME280;26987;59.928;30.306;2023-01-25T09:01:00;101711.38;;;0.79;100.00
41254;BME280;26987;59.928;30.306;2023-01-25T09:03:30;101730.25;;;0.97;100.00
41254;BME280;26987;59.928;30.306;2023-01-25T09:05:58;101722.06;;;0.89;100.00
41254;BME280;26987;59.928;30.306;2023-01-25T09:08:26;101731.09;;;0.98;100.00
41254;BME280;26987;59.928;30.306;2023-01-25T09:10:54;101724.72;;;1.00;100.00
41254;BME280;26987;59.928;30.306;2023-01-25T09:13:23;101618.31;;;0.41;100.00
41254;BME280;26987;59.928;30.306;2023-01-25T09:15:51;101690.97;;;0.93;100.00
41254;BME280;26987;59.928;30.306;2023-01-25T09:18:19;101697.22;;;1.03;100.00
41254;BME280;26987;59.928;30.306;2023-01-25T09:20:47;101683.53;;;0.98;100.00
41254;BME280;26987;59.928;30.306;2023-01-25T09:23:15;101684.97;;;1.02;100.00
41254;BME280;26987;59.928;30.306;2023-01-25T09:25:44;101682.94;;;0.94;100.00
41254;BME280;26987;59.928;30.306;2023-01-25T09:28:12;101686.19;;;0.98;100.00
41254;BME280;26987;59.928;30.306;2023-01-25T09:30:42;101686.88;;;1.00;100.00
41254;BME280;26987;59.928;30.306;2023-01-25T09:33:15;101675.97;;;1.05;100.00
41254;BME280;26987;59.928;30.306;2023-01-25T09:35:46;101667.19;;;1.04;100.00
41254;BME280;26987;59.928;30.306;2023-01-25T09:38:15;101666.25;;;1.05;100.00
41254;BME280;26987;59.928;30.306;2023-01-25T09:40:46;101649.22;;;0.98;100.00
41254;BME280;26987;59.928;30.306;2023-01-25T09:43:24;101664.78;;;1.12;100.00
41254;BME280;26987;59.928;30.306;2023-01-25T09:46:01;101662.16;;;1.12;100.00
41254;BME280;26987;59.928;30.306;2023-01-25T09:48:39;101645.94;;;1.06;100.00
41254;BME280;26987;59.928;30.306;2023-01-25T09:51:17;101651.47;;;1.14;100.00
41254;BME280;26987;59.928;30.306;2023-01-25T09:53:48;101638.00;;;1.06;100.00
41254;BME280;26987;59.928;30.306;2023-01-25T09:56:21;101639.34;;;1.11;100.00
41254;BME280;26987;59.928;30.306;2023-01-25T09:58:52;101645.44;;;1.12;100.00
41254;BME280;26987;59.928;30.306;2023-01-25T10:01:31;101635.38;;;1.17;100.00
41254;BME280;26987;59.928;30.306;2023-01-25T10:04:06;101626.59;;;1.17;100.00
41254;BME280;26987;59.928;30.306;2023-01-25T10:06:37;101609.41;;;1.34;100.00
41254;BME280;26987;59.928;30.306;2023-01-25T10:09:14;101612.28;;;1.19;100.00
41254;BME280;26987;59.928;30.306;2023-01-25T10:11:45;101603.06;;;1.13;100.00
41254;BME280;26987;59.928;30.306;2023-01-25T10:14:15;101596.34;;;1.09;100.00
41254;BME280;26987;59.928;30.306;2023-01-25T10:16:57;101595.63;;;1.19;100.00
41254;BME280;26987;59.928;30.306;2023-01-25T10:19:39;101582.53;;;1.17;100.00
41254;BME280;26987;59.928;30.306;2023-01-25T10:22:13;101581.94;;;1.13;100.00
41254;BME280;26987;59.928;30.306;2023-01-25T10:25:10;101594.53;;;1.21;100.00
41254;BME280;26987;59.928;30.306;2023-01-25T10:28:01;101586.13;;;1.16;100.00
41254;BME280;26987;59.928;30.306;2023-01-25T10:30:34;101581.06;;;1.13;100.00
41254;BME280;26987;59.928;30.306;2023-01-25T10:33:12;101574.13;;;1.12;100.00
41254;BME280;26987;59.928;30.306;2023-01-25T10:35:43;101559.84;;;1.03;100.00
41254;BME280;26987;59.928;30.306;2023-01-25T10:38:16;101570.25;;;1.16;100.00
41254;BME280;26987;59.928;30.306;2023-01-25T10:40:51;101564.41;;;1.12;100.00
41254;BME280;26987;59.928;30.306;2023-01-25T10:43:21;101568.09;;;1.21;100.00
41254;BME280;26987;59.928;30.306;2023-01-25T10:45:51;101564.38;;;1.24;100.00
41254;BME280;26987;59.928;30.306;2023-01-25T10:48:23;101564.25;;;1.25;100.00
41254;BME280;26987;59.928;30.306;2023-01-25T10:50:54;101550.06;;;1.26;100.00
41254;BME280;26987;59.928;30.306;2023-01-25T10:53:26;101547.81;;;1.22;100.00
41254;BME280;26987;59.928;30.306;2023-01-25T10:56:18;101548.13;;;1.29;100.00
41254;BME280;26987;59.928;30.306;2023-01-25T10:58:49;101551.41;;;1.21;100.00
41254;BME280;26987;59.928;30.306;2023-01-25T11:01:30;101545.38;;;1.30;100.00
41254;BME280;26987;59.928;30.306;2023-01-25T11:04:00;101535.66;;;1.19;100.00
41254;BME280;26987;59.928;30.306;2023-01-25T11:06:31;101540.09;;;1.30;100.00
41254;BME280;26987;59.928;30.306;2023-01-25T11:09:00;101533.69;;;1.33;100.00
41254;BME280;26987;59.928;30.306;2023-01-25T11:11:34;101530.44;;;1.41;100.00
41254;BME280;26987;59.928;30.306;2023-01-25T11:14:14;101529.19;;;1.45;100.00
41254;BME280;26987;59.928;30.306;2023-01-25T11:16:44;101514.13;;;1.35;100.00
41254;BME280;26987;59.928;30.306;2023-01-25T11:19:31;101530.00;;;1.57;100.00
41254;BME280;26987;59.928;30.306;2023-01-25T11:22:00;101524.38;;;1.50;100.00
41254;BME280;26987;59.928;30.306;2023-01-25T11:24:29;101515.47;;;1.51;100.00
41254;BME280;26987;59.928;30.306;2023-01-25T11:27:16;101508.03;;;1.56;100.00
41254;BME280;26987;59.928;30.306;2023-01-25T11:29:45;101474.66;;;1.22;100.00
41254;BME280;26987;59.928;30.306;2023-01-25T11:32:33;101507.38;;;1.43;100.00
41254;BME280;26987;59.928;30.306;2023-01-25T11:35:02;101493.69;;;1.37;100.00
41254;BME280;26987;59.928;30.306;2023-01-25T11:37:56;101502.53;;;1.48;100.00
41254;BME280;26987;59.928;30.306;2023-01-25T11:40:33;101499.88;;;1.48;100.00
41254;BME280;26987;59.928;30.306;2023-01-25T11:43:17;101496.97;;;1.51;100.00
41254;BME280;26987;59.928;30.306;2023-01-25T11:46:00;101489.03;;;1.51;100.00
41254;BME280;26987;59.928;30.306;2023-01-25T11:48:59;101487.69;;;1.57;100.00
41254;BME280;26987;59.928;30.306;2023-01-25T11:51:37;101485.72;;;1.49;100.00
41254;BME280;26987;59.928;30.306;2023-01-25T11:57:07;101480.16;;;1.52;100.00
41254;BME280;26987;59.928;30.306;2023-01-25T11:59:58;101481.31;;;1.59;100.00
41254;BME280;26987;59.928;30.306;2023-01-25T12:03:03;101480.59;;;1.57;100.00
41254;BME280;26987;59.928;30.306;2023-01-25T12:05:53;101470.88;;;1.58;100.00
41254;BME280;26987;59.928;30.306;2023-01-25T12:08:41;101477.25;;;1.55;100.00
41254;BME280;26987;59.928;30.306;2023-01-25T12:11:20;101472.38;;;1.50;100.00
41254;BME280;26987;59.928;30.306;2023-01-25T12:13:59;101438.31;;;1.36;100.00
41254;BME280;26987;59.928;30.306;2023-01-25T12:16:41;101471.81;;;1.57;100.00
41254;BME280;26987;59.928;30.306;2023-01-25T12:19:26;101463.75;;;1.58;100.00
41254;BME280;26987;59.928;30.306;2023-01-25T12:22:15;101462.81;;;1.59;100.00
41254;BME280;26987;59.928;30.306;2023-01-25T12:24:53;101448.13;;;1.45;100.00
41254;BME280;26987;59.928;30.306;2023-01-25T12:27:34;101458.91;;;1.54;100.00
41254;BME280;26987;59.928;30.306;2023-01-25T12:30:13;101449.25;;;1.53;100.00
41254;BME280;26987;59.928;30.306;2023-01-25T12:32:48;101440.31;;;1.44;100.00
41254;BME280;26987;59.928;30.306;2023-01-25T12:35:27;101437.09;;;1.40;100.00
41254;BME280;26987;59.928;30.306;2023-01-25T12:38:02;101434.19;;;1.43;100.00
41254;BME280;26987;59.928;30.306;2023-01-25T12:40:41;101425.03;;;1.47;100.00
41254;BME280;26987;59.928;30.306;2023-01-25T12:43:15;101419.69;;;1.37;100.00
41254;BME280;26987;59.928;30.306;2023-01-25T12:45:45;101414.97;;;1.41;100.00
41254;BME280;26987;59.928;30.306;2023-01-25T12:48:18;101409.56;;;1.43;100.00
41254;BME280;26987;59.928;30.306;2023-01-25T12:50:51;101414.97;;;1.41;100.00
41254;BME280;26987;59.928;30.306;2023-01-25T12:53:23;101393.91;;;1.30;100.00
41254;BME280;26987;59.928;30.306;2023-01-25T12:55:53;101407.75;;;1.43;100.00
41254;BME280;26987;59.928;30.306;2023-01-25T12:58:28;101403.91;;;1.47;100.00
41254;BME280;26987;59.928;30.306;2023-01-25T13:01:01;101417.25;;;1.46;100.00
41254;BME280;26987;59.928;30.306;2023-01-25T13:03:36;101418.91;;;1.47;100.00
41254;BME280;26987;59.928;30.306;2023-01-25T13:06:14;101417.81;;;1.49;100.00
41254;BME280;26987;59.928;30.306;2023-01-25T13:08:53;101415.53;;;1.45;100.00
41254;BME280;26987;59.928;30.306;2023-01-25T13:11:30;101413.09;;;1.53;100.00